Time;durP1;ratioP1;P1;durP2;ratioP2;P2;SDS_P1;SDS_P2;PMS_P1;PMS_P2;Temp;Humidity;BMP_temperature;BMP_pressure;BME280_temperature;BME280_humidity;BME280_pressure;Samples;Min_cycle;Max_cycle;Signal;HPM_P1;HPM_P2
2022/09/05 00:01:50;;;;;;;0.00;0.00;;;;;;;;;;5132122;28;20150;-82
2022/09/05 00:04:29;;;;;;;0.00;0.00;;;;;;;;;;5132348;28;20031;-85
2022/09/05 00:07:14;;;;;;;0.00;0.00;;;;;;;;;;5129375;28;20031;-85
2022/09/05 00:10:04;;;;;;;0.00;0.00;;;;;;;;;;5132421;28;20035;-82
2022/09/05 00:12:31;;;;;;;0.00;0.00;;;;;;;;;;5132652;28;20015;-82
2022/09/05 00:15:15;;;;;;;0.20;0.20;;;;;;;;;;5132565;28;20027;-82
2022/09/05 00:18:02;;;;;;;0.20;0.20;;;;;;;;;;5132074;28;20023;-83
2022/09/05 00:20:33;;;;;;;0.52;0.43;;;;;;;;;;5113930;28;20046;-82
2022/09/05 00:23:12;;;;;;;0.00;0.00;;;;;;;;;;5131652;28;20023;-84
2022/09/05 00:26:07;;;;;;;0.25;0.22;;;;;;;;;;5113637;28;20083;-83
2022/09/05 00:28:50;;;;;;;0.00;0.00;;;;;;;;;;5112780;28;20058;-82
2022/09/05 00:31:27;;;;;;;0.00;0.00;;;;;;;;;;5128597;28;20038;-83
2022/09/05 00:34:20;;;;;;;0.32;0.30;;;;;;;;;;5132282;28;20025;-81
2022/09/05 00:36:54;;;;;;;0.00;0.00;;;;;;;;;;5131209;28;20023;-83
2022/09/05 00:39:24;;;;;;;0.00;0.00;;;;;;;;;;5108531;28;20042;-84
2022/09/05 00:41:53;;;;;;;0.52;0.52;;;;;;;;;;5130340;28;20027;-83
2022/09/05 00:44:23;;;;;;;0.00;0.00;;;;;;;;;;5131858;28;20023;-83
2022/09/05 00:47:17;;;;;;;0.00;0.00;;;;;;;;;;5130614;28;20027;-83
2022/09/05 00:49:48;;;;;;;0.10;0.05;;;;;;;;;;5130890;28;20022;-83
2022/09/05 00:52:33;;;;;;;0.00;0.00;;;;;;;;;;5113632;28;20045;-83
2022/09/05 00:55:29;;;;;;;0.00;0.00;;;;;;;;;;5130521;28;20066;-84
2022/09/05 00:58:02;;;;;;;0.45;0.38;;;;;;;;;;5118449;27;20039;-83
2022/09/05 01:00:54;;;;;;;0.00;0.00;;;;;;;;;;5136074;27;20030;-84
2022/09/05 01:03:25;;;;;;;0.30;0.30;;;;;;;;;;5117494;27;20031;-84
2022/09/05 01:06:10;;;;;;;0.00;0.00;;;;;;;;;;5115767;27;20034;-83
2022/09/05 01:08:54;;;;;;;0.20;0.20;;;;;;;;;;5130626;27;20019;-82
2022/09/05 01:11:57;;;;;;;0.10;0.10;;;;;;;;;;5135132;27;20027;-83
2022/09/05 01:14:47;;;;;;;0.30;0.20;;;;;;;;;;5116464;27;20030;-83
2022/09/05 01:17:26;;;;;;;;;;;;;;;;;;5135967;27;20489;-84
2022/09/05 01:20:26;;;;;;;0.00;0.00;;;;;;;;;;5117126;27;19919;-83
2022/09/05 01:23:11;;;;;;;0.08;0.08;;;;;;;;;;5132395;27;20073;-83
2022/09/05 01:25:48;;;;;;;0.00;0.00;;;;;;;;;;5113986;27;20030;-82
2022/09/05 01:28:28;;;;;;;0.20;0.20;;;;;;;;;;5115149;27;20448;-82
2022/09/05 01:31:20;;;;;;;0.30;0.30;;;;;;;;;;5113285;27;20468;-83
2022/09/05 01:33:52;;;;;;;0.00;0.00;;;;;;;;;;5116423;27;20027;-82
2022/09/05 01:36:36;;;;;;;0.50;0.22;;;;;;;;;;5114766;27;20037;-82
2022/09/05 01:39:16;;;;;;;0.38;0.13;;;;;;;;;;5130144;27;20098;-82
2022/09/05 01:42:07;;;;;;;0.00;0.00;;;;;;;;;;5131421;27;20030;-82
2022/09/05 01:44:53;;;;;;;0.20;0.20;;;;;;;;;;5131639;27;20471;-81
2022/09/05 01:47:26;;;;;;;0.00;0.00;;;;;;;;;;5133356;27;20185;-83
2022/09/05 01:50:09;;;;;;;0.25;0.15;;;;;;;;;;5135653;27;20027;-82
2022/09/05 01:53:07;;;;;;;0.20;0.20;;;;;;;;;;5134318;27;20023;-82
2022/09/05 01:55:53;;;;;;;0.00;0.00;;;;;;;;;;5094356;27;20058;-82
2022/09/05 01:58:36;;;;;;;0.00;0.00;;;;;;;;;;5133400;27;20406;-82
2022/09/05 02:01:12;;;;;;;0.10;0.10;;;;;;;;;;5134279;27;20072;-83
2022/09/05 02:03:48;;;;;;;0.25;0.25;;;;;;;;;;5134475;27;20019;-83
2022/09/05 02:06:38;;;;;;;0.00;0.00;;;;;;;;;;5134631;27;20019;-83
2022/09/05 02:09:30;;;;;;;0.00;0.00;;;;;;;;;;5134378;27;20027;-83
2022/09/05 02:12:00;;;;;;;0.10;0.03;;;;;;;;;;5121337;27;20052;-83
2022/09/05 02:14:42;;;;;;;0.00;0.00;;;;;;;;;;5113605;27;20023;-82
2022/09/05 02:17:22;;;;;;;0.10;0.10;;;;;;;;;;5116023;27;20031;-82
2022/09/05 02:20:14;;;;;;;0.13;0.10;;;;;;;;;;5133375;27;20023;-83
2022/09/05 02:23:21;;;;;;;0.22;0.08;;;;;;;;;;5115544;27;20031;-83
2022/09/05 02:25:56;;;;;;;0.03;0.03;;;;;;;;;;5133707;27;20026;-82
2022/09/05 02:29:03;;;;;;;0.00;0.00;;;;;;;;;;5133887;27;20110;-83
2022/09/05 02:31:41;;;;;;;0.10;0.10;;;;;;;;;;5132937;27;20027;-82
2022/09/05 02:35:03;;;;;;;0.20;0.20;;;;;;;;;;5134150;27;20481;-83
2022/09/05 02:38:11;;;;;;;0.00;0.00;;;;;;;;;;5050297;28;20037;-82
2022/09/05 02:41:03;;;;;;;1.35;0.45;;;;;;;;;;5042583;28;20052;-82
2022/09/05 02:44:14;;;;;;;1.15;0.80;;;;;;;;;;5133368;27;20104;-83
2022/09/05 02:46:44;;;;;;;0.90;0.90;;;;;;;;;;5130518;27;21775;-82
2022/09/05 02:49:17;;;;;;;0.30;0.30;;;;;;;;;;5134053;27;20023;-83
2022/09/05 02:51:54;;;;;;;0.28;0.28;;;;;;;;;;5114036;27;20023;-82
2022/09/05 02:54:24;;;;;;;0.10;0.10;;;;;;;;;;5133709;27;20079;-82
2022/09/05 02:56:53;;;;;;;0.05;0.05;;;;;;;;;;5112669;27;20523;-81
2022/09/05 02:59:41;;;;;;;0.20;0.20;;;;;;;;;;5111760;28;20053;-82
2022/09/05 03:02:19;;;;;;;0.25;0.25;;;;;;;;;;5096347;28;20093;-81
2022/09/05 03:04:50;;;;;;;0.38;0.32;;;;;;;;;;5110654;28;20020;-81
2022/09/05 03:07:40;;;;;;;1.63;0.85;;;;;;;;;;5110383;28;20028;-82
2022/09/05 03:10:24;;;;;;;0.05;0.05;;;;;;;;;;5111223;28;20455;-82
2022/09/05 03:13:37;;;;;;;0.10;0.10;;;;;;;;;;5110269;28;20084;-84
2022/09/05 03:16:24;;;;;;;1.67;0.65;;;;;;;;;;5087048;28;20043;-82
2022/09/05 03:19:08;;;;;;;0.00;0.00;;;;;;;;;;5109424;28;20084;-82
2022/09/05 03:22:10;;;;;;;0.60;0.60;;;;;;;;;;5110211;28;20026;-83
2022/09/05 03:24:51;;;;;;;0.00;0.00;;;;;;;;;;5109157;28;20023;-84
2022/09/05 03:27:26;;;;;;;0.35;0.35;;;;;;;;;;5110616;28;20494;-82
2022/09/05 03:30:07;;;;;;;0.32;0.17;;;;;;;;;;5110068;28;20016;-82
2022/09/05 03:32:51;;;;;;;0.30;0.30;;;;;;;;;;5110276;28;20024;-82
2022/09/05 03:35:35;;;;;;;0.88;0.38;;;;;;;;;;5110784;28;20054;-83
2022/09/05 03:38:38;;;;;;;1.00;0.55;;;;;;;;;;5110524;28;20024;-83
2022/09/05 03:41:30;;;;;;;0.50;0.38;;;;;;;;;;5111909;28;20482;-83
2022/09/05 03:44:01;;;;;;;2.38;0.73;;;;;;;;;;5108625;28;20398;-83
2022/09/05 03:46:59;;;;;;;0.17;0.17;;;;;;;;;;5110604;28;20062;-83
2022/09/05 03:49:45;;;;;;;0.00;0.00;;;;;;;;;;5076658;28;20035;-83
2022/09/05 03:52:52;;;;;;;0.30;0.30;;;;;;;;;;5112075;28;20068;-83
2022/09/05 03:55:29;;;;;;;0.00;0.00;;;;;;;;;;5099927;28;20441;-83
2022/09/05 03:58:21;;;;;;;0.00;0.00;;;;;;;;;;5110511;28;20463;-83
2022/09/05 04:01:06;;;;;;;0.00;0.00;;;;;;;;;;5109296;28;20077;-82
2022/09/05 04:03:37;;;;;;;0.00;0.00;;;;;;;;;;5111103;28;20023;-81
2022/09/05 04:06:14;;;;;;;0.08;0.08;;;;;;;;;;5111135;28;20020;-82
2022/09/05 04:09:02;;;;;;;0.00;0.00;;;;;;;;;;5111775;28;20023;-83
2022/09/05 04:11:43;;;;;;;0.73;0.65;;;;;;;;;;5111124;28;20383;-84
2022/09/05 04:14:25;;;;;;;0.00;0.00;;;;;;;;;;5111226;28;20020;-82
2022/09/05 04:16:50;;;;;;;0.00;0.00;;;;;;;;;;5111224;28;20039;-82
2022/09/05 04:19:34;;;;;;;0.68;0.32;;;;;;;;;;5110803;28;20078;-82
2022/09/05 04:22:20;;;;;;;0.00;0.00;;;;;;;;;;5108196;28;20468;-83
2022/09/05 04:25:18;;;;;;;0.00;0.00;;;;;;;;;;5109673;28;20027;-81
2022/09/05 04:27:46;;;;;;;0.00;0.00;;;;;;;;;;5084134;28;20046;-81
2022/09/05 04:30:43;;;;;;;0.00;0.00;;;;;;;;;;5110098;28;20072;-81
2022/09/05 04:33:36;;;;;;;0.40;0.08;;;;;;;;;;5112584;28;20352;-82
2022/09/05 04:36:11;;;;;;;0.38;0.38;;;;;;;;;;5113083;28;20015;-81
2022/09/05 04:38:40;;;;;;;0.00;0.00;;;;;;;;;;5113632;28;20467;-81
2022/09/05 04:41:12;;;;;;;0.13;0.10;;;;;;;;;;5111838;28;20114;-81
2022/09/05 04:43:50;;;;;;;0.00;0.00;;;;;;;;;;5113497;28;20030;-82
2022/09/05 04:46:27;;;;;;;0.22;0.22;;;;;;;;;;5112931;28;20120;-81
2022/09/05 04:49:00;;;;;;;0.32;0.32;;;;;;;;;;5111321;28;20490;-82
2022/09/05 04:51:28;;;;;;;0.00;0.00;;;;;;;;;;5113882;28;20023;-80
2022/09/05 04:54:24;;;;;;;0.05;0.05;;;;;;;;;;5111937;28;20030;-80
2022/09/05 04:56:55;;;;;;;0.57;0.57;;;;;;;;;;5130527;27;20050;-80
2022/09/05 04:59:33;;;;;;;0.15;0.15;;;;;;;;;;5133973;27;20151;-81
2022/09/05 05:02:05;;;;;;;0.10;0.10;;;;;;;;;;5130202;27;20058;-81
2022/09/05 05:04:31;;;;;;;0.10;0.10;;;;;;;;;;5135013;27;20061;-81
2022/09/05 05:07:25;;;;;;;0.08;0.08;;;;;;;;;;5132808;27;20035;-80
2022/09/05 05:09:55;;;;;;;0.00;0.00;;;;;;;;;;5133634;27;20031;-81
2022/09/05 05:12:39;;;;;;;0.10;0.10;;;;;;;;;;5132456;27;20042;-81
2022/09/05 05:15:12;;;;;;;0.00;0.00;;;;;;;;;;5133738;27;20087;-84
2022/09/05 05:17:50;;;;;;;0.00;0.00;;;;;;;;;;5115573;27;20030;-83
2022/09/05 05:20:25;;;;;;;0.00;0.00;;;;;;;;;;5134029;27;20027;-83
2022/09/05 05:22:58;;;;;;;0.28;0.28;;;;;;;;;;5135364;27;20098;-82
2022/09/05 05:25:25;;;;;;;0.10;0.10;;;;;;;;;;5113400;27;20084;-82
2022/09/05 05:28:11;;;;;;;0.38;0.38;;;;;;;;;;5133064;27;20098;-82
2022/09/05 05:30:38;;;;;;;0.20;0.20;;;;;;;;;;5112265;27;20033;-81
2022/09/05 05:33:37;;;;;;;0.05;0.05;;;;;;;;;;5131525;27;20627;-81
2022/09/05 05:36:07;;;;;;;0.00;0.00;;;;;;;;;;5114041;27;20053;-81
2022/09/05 05:38:33;;;;;;;0.10;0.10;;;;;;;;;;5116016;27;20023;-82
2022/09/05 05:41:15;;;;;;;0.22;0.22;;;;;;;;;;5133209;27;20546;-81
2022/09/05 05:43:43;;;;;;;0.10;0.10;;;;;;;;;;5113648;28;20062;-81
2022/09/05 05:46:14;;;;;;;0.17;0.17;;;;;;;;;;5129184;27;20432;-81
2022/09/05 05:48:43;;;;;;;0.10;0.10;;;;;;;;;;5133897;27;20538;-81
2022/09/05 05:51:21;;;;;;;0.00;0.00;;;;;;;;;;5132315;27;20022;-83
2022/09/05 05:54:02;;;;;;;0.10;0.10;;;;;;;;;;5130929;27;20037;-83
2022/09/05 05:56:39;;;;;;;0.00;0.00;;;;;;;;;;5131330;27;20067;-81
2022/09/05 05:59:38;;;;;;;0.10;0.10;;;;;;;;;;5115019;27;20058;-84
2022/09/05 06:02:16;;;;;;;0.10;0.10;;;;;;;;;;5122825;27;20050;-83
2022/09/05 06:05:39;;;;;;;0.10;0.10;;;;;;;;;;5136187;27;20487;-81
2022/09/05 06:08:41;;;;;;;0.10;0.10;;;;;;;;;;5036876;28;20028;-81
2022/09/05 06:11:26;;;;;;;0.22;0.22;;;;;;;;;;5075945;27;20031;-82
2022/09/05 06:14:13;;;;;;;0.47;0.20;;;;;;;;;;5136739;27;20106;-82
2022/09/05 06:16:50;;;;;;;0.00;0.00;;;;;;;;;;5136808;27;20027;-81
2022/09/05 06:19:25;;;;;;;0.13;0.13;;;;;;;;;;5135708;27;20420;-82
2022/09/05 06:22:27;;;;;;;0.00;0.00;;;;;;;;;;5134699;27;20424;-84
2022/09/05 06:25:13;;;;;;;0.00;0.00;;;;;;;;;;5133436;27;20019;-82
2022/09/05 06:27:53;;;;;;;0.10;0.10;;;;;;;;;;5134190;27;20068;-80
2022/09/05 06:30:21;;;;;;;0.00;0.00;;;;;;;;;;5132213;27;20471;-82
2022/09/05 06:33:02;;;;;;;0.00;0.00;;;;;;;;;;5136632;27;20076;-82
2022/09/05 06:35:49;;;;;;;0.10;0.10;;;;;;;;;;5134093;27;20112;-81
2022/09/05 06:38:30;;;;;;;0.20;0.20;;;;;;;;;;5131472;27;20031;-81
2022/09/05 06:41:20;;;;;;;0.03;0.03;;;;;;;;;;5130929;27;20023;-80
2022/09/05 06:44:26;;;;;;;0.10;0.10;;;;;;;;;;5135360;27;20039;-81
2022/09/05 06:46:59;;;;;;;0.00;0.00;;;;;;;;;;5134551;27;20056;-81
2022/09/05 06:49:42;;;;;;;0.00;0.00;;;;;;;;;;5135047;27;20446;-80
2022/09/05 06:52:38;;;;;;;0.00;0.00;;;;;;;;;;5133296;27;20027;-81
2022/09/05 06:55:26;;;;;;;0.05;0.05;;;;;;;;;;5114745;27;20048;-81
2022/09/05 06:58:03;;;;;;;0.00;0.00;;;;;;;;;;5130600;27;20035;-80
2022/09/05 07:00:51;;;;;;;0.20;0.20;;;;;;;;;;5127242;27;20106;-80
2022/09/05 07:03:29;;;;;;;0.00;0.00;;;;;;;;;;5128962;27;20027;-81
2022/09/05 07:06:06;;;;;;;1.45;0.68;;;;;;;;;;5131310;27;20088;-80
2022/09/05 07:08:50;;;;;;;0.22;0.22;;;;;;;;;;5110556;27;20107;-80
2022/09/05 07:11:18;;;;;;;2.28;0.35;;;;;;;;;;5113608;27;20064;-80
2022/09/05 07:14:23;;;;;;;0.00;0.00;;;;;;;;;;5133852;27;20026;-81
2022/09/05 07:16:53;;;;;;;1.27;0.35;;;;;;;;;;5133332;27;20075;-81
2022/09/05 07:19:25;;;;;;;0.00;0.00;;;;;;;;;;5107342;28;20031;-82
2022/09/05 07:22:12;;;;;;;0.38;0.38;;;;;;;;;;5134450;27;20041;-82
2022/09/05 07:24:43;;;;;;;0.22;0.22;;;;;;;;;;5130730;27;20038;-81
2022/09/05 07:27:11;;;;;;;0.17;0.17;;;;;;;;;;5112481;27;20140;-81
2022/09/05 07:29:43;;;;;;;0.00;0.00;;;;;;;;;;5110948;27;20080;-81
2022/09/05 07:32:17;;;;;;;0.10;0.10;;;;;;;;;;5132704;27;20016;-80
2022/09/05 07:34:45;;;;;;;0.00;0.00;;;;;;;;;;5127639;27;20028;-83
2022/09/05 07:37:29;;;;;;;0.00;0.00;;;;;;;;;;5113748;27;20030;-81
2022/09/05 07:39:58;;;;;;;0.00;0.00;;;;;;;;;;5133303;27;20475;-80
2022/09/05 07:42:43;;;;;;;0.17;0.17;;;;;;;;;;5130956;27;20027;-82
2022/09/05 07:45:21;;;;;;;0.00;0.00;;;;;;;;;;5129736;27;20418;-82
2022/09/05 07:47:57;;;;;;;0.25;0.25;;;;;;;;;;5133890;27;20031;-79
2022/09/05 07:50:24;;;;;;;0.40;0.40;;;;;;;;;;5113688;27;20099;-82
2022/09/05 07:52:50;;;;;;;0.00;0.00;;;;;;;;;;5132975;27;20014;-81
2022/09/05 07:55:36;;;;;;;0.00;0.00;;;;;;;;;;5112611;27;20050;-81
2022/09/05 07:58:06;;;;;;;0.00;0.00;;;;;;;;;;5111641;27;20025;-82
2022/09/05 08:00:34;;;;;;;0.00;0.00;;;;;;;;;;5131438;27;20102;-82
2022/09/05 08:03:09;;;;;;;0.00;0.00;;;;;;;;;;5131542;27;20030;-82
2022/09/05 08:05:44;;;;;;;0.00;0.00;;;;;;;;;;5131367;28;20038;-84
2022/09/05 08:08:18;;;;;;;0.55;0.38;;;;;;;;;;5106227;28;20118;-84
2022/09/05 08:10:56;;;;;;;0.03;0.00;;;;;;;;;;5129610;28;20461;-84
2022/09/05 08:13:46;;;;;;;0.10;0.10;;;;;;;;;;5131094;28;20031;-82
2022/09/05 08:16:19;;;;;;;0.00;0.00;;;;;;;;;;5128439;28;20030;-80
2022/09/05 08:19:03;;;;;;;0.03;0.03;;;;;;;;;;5129475;28;20026;-81
2022/09/05 08:21:46;;;;;;;0.00;0.00;;;;;;;;;;5129670;28;20555;-81
2022/09/05 08:24:12;;;;;;;0.00;0.00;;;;;;;;;;5127287;28;20030;-81
2022/09/05 08:27:00;;;;;;;0.00;0.00;;;;;;;;;;5111796;28;20075;-79
2022/09/05 08:29:25;;;;;;;0.00;0.00;;;;;;;;;;5130164;28;20410;-79
2022/09/05 08:32:08;;;;;;;0.00;0.00;;;;;;;;;;5130531;28;20019;-80
2022/09/05 08:34:36;;;;;;;0.00;0.00;;;;;;;;;;5126523;28;20081;-80
2022/09/05 08:37:04;;;;;;;0.00;0.00;;;;;;;;;;5113706;28;20079;-82
2022/09/05 08:39:32;;;;;;;0.00;0.00;;;;;;;;;;5129406;28;20472;-86
2022/09/05 08:42:06;;;;;;;0.00;0.00;;;;;;;;;;5132177;28;20423;-79
2022/09/05 08:44:39;;;;;;;0.00;0.00;;;;;;;;;;5129015;28;20038;-83
2022/09/05 08:47:27;;;;;;;0.10;0.10;;;;;;;;;;5131281;28;20083;-88
2022/09/05 08:50:21;;;;;;;0.00;0.00;;;;;;;;;;5127911;28;20034;-84
2022/09/05 08:52:46;;;;;;;0.00;0.00;;;;;;;;;;5130925;28;20375;-85
2022/09/05 08:55:11;;;;;;;0.00;0.00;;;;;;;;;;5129694;27;20047;-84
2022/09/05 08:58:25;;;;;;;0.00;0.00;;;;;;;;;;5113108;28;20015;-84
2022/09/05 09:00:57;;;;;;;0.00;0.00;;;;;;;;;;5108626;28;20034;-84
2022/09/05 09:03:43;;;;;;;0.00;0.00;;;;;;;;;;5130588;28;20432;-86
2022/09/05 09:06:19;;;;;;;0.00;0.00;;;;;;;;;;5129098;28;20065;-84
2022/09/05 09:09:03;;;;;;;0.00;0.00;;;;;;;;;;5112286;28;20483;-84
2022/09/05 09:11:47;;;;;;;0.00;0.00;;;;;;;;;;5130062;27;20030;-83
2022/09/05 09:14:31;;;;;;;0.10;0.10;;;;;;;;;;5129642;28;20153;-82
2022/09/05 09:17:34;;;;;;;0.00;0.00;;;;;;;;;;5112981;28;20065;-82
2022/09/05 09:20:15;;;;;;;0.10;0.10;;;;;;;;;;5122076;27;20023;-86
2022/09/05 09:23:07;;;;;;;0.00;0.00;;;;;;;;;;5112402;27;20382;-86
2022/09/05 09:25:56;;;;;;;0.00;0.00;;;;;;;;;;5133019;27;20023;-86
2022/09/05 09:28:44;;;;;;;0.00;0.00;;;;;;;;;;5132478;27;20378;-82
2022/09/05 09:31:33;;;;;;;0.00;0.00;;;;;;;;;;5134008;27;20042;-81
2022/09/05 09:34:24;;;;;;;0.03;0.03;;;;;;;;;;5131018;27;20110;-83
2022/09/05 09:37:14;;;;;;;0.00;0.00;;;;;;;;;;5134058;27;20493;-83
2022/09/05 09:40:24;;;;;;;0.00;0.00;;;;;;;;;;5134207;27;20106;-84
2022/09/05 09:42:53;;;;;;;0.00;0.00;;;;;;;;;;5108445;27;20096;-84
2022/09/05 09:45:59;;;;;;;0.00;0.00;;;;;;;;;;5136855;27;20034;-83
2022/09/05 09:48:41;;;;;;;0.00;0.00;;;;;;;;;;5135231;27;20023;-82
2022/09/05 09:51:55;;;;;;;0.00;0.00;;;;;;;;;;5126356;27;20028;-83
2022/09/05 09:54:41;;;;;;;0.00;0.00;;;;;;;;;;5059166;27;20868;-84
2022/09/05 09:57:28;;;;;;;0.00;0.00;;;;;;;;;;5135884;27;20513;-84
2022/09/05 10:00:19;;;;;;;0.30;0.20;;;;;;;;;;5115216;27;20475;-83
2022/09/05 10:03:07;;;;;;;0.08;0.08;;;;;;;;;;5111292;27;20043;-84
2022/09/05 10:05:54;;;;;;;0.10;0.00;;;;;;;;;;5108930;27;20024;-83
2022/09/05 10:08:22;;;;;;;0.10;0.10;;;;;;;;;;5130787;27;20502;-84
2022/09/05 10:11:02;;;;;;;0.13;0.13;;;;;;;;;;5134846;27;20050;-83
2022/09/05 10:13:40;;;;;;;0.00;0.00;;;;;;;;;;5112637;27;20030;-83
2022/09/05 10:16:08;;;;;;;0.15;0.08;;;;;;;;;;5135019;27;20042;-83
2022/09/05 10:18:57;;;;;;;0.17;0.15;;;;;;;;;;5117203;27;20752;-84
2022/09/05 10:21:52;;;;;;;0.00;0.00;;;;;;;;;;5129175;27;20053;-83
2022/09/05 10:24:31;;;;;;;0.08;0.08;;;;;;;;;;5105993;27;20049;-83
2022/09/05 10:27:18;;;;;;;0.00;0.00;;;;;;;;;;5129140;27;20461;-83
2022/09/05 10:30:07;;;;;;;0.00;0.00;;;;;;;;;;5132136;27;20019;-84
2022/09/05 10:33:02;;;;;;;0.00;0.00;;;;;;;;;;5134086;27;20031;-84
2022/09/05 10:35:35;;;;;;;0.00;0.00;;;;;;;;;;5052455;27;20037;-83
2022/09/05 10:38:17;;;;;;;0.00;0.00;;;;;;;;;;5114126;27;20042;-84
2022/09/05 10:40:50;;;;;;;0.00;0.00;;;;;;;;;;5134365;27;20080;-84
2022/09/05 10:43:29;;;;;;;0.60;0.60;;;;;;;;;;5113701;27;20039;-87
2022/09/05 10:45:55;;;;;;;0.00;0.00;;;;;;;;;;5134424;27;20506;-84
2022/09/05 10:48:26;;;;;;;0.10;0.10;;;;;;;;;;5130614;27;20102;-83
2022/09/05 10:50:59;;;;;;;0.00;0.00;;;;;;;;;;5134029;27;20019;-84
2022/09/05 10:53:34;;;;;;;0.10;0.10;;;;;;;;;;5131538;27;20026;-87
2022/09/05 10:56:02;;;;;;;0.00;0.00;;;;;;;;;;5132715;27;20088;-86
2022/09/05 10:58:52;;;;;;;0.00;0.00;;;;;;;;;;5115148;27;20062;-84
2022/09/05 11:01:21;;;;;;;0.30;0.30;;;;;;;;;;5114836;27;20027;-83
2022/09/05 11:03:53;;;;;;;0.00;0.00;;;;;;;;;;5133756;27;20371;-83
2022/09/05 11:06:47;;;;;;;0.15;0.15;;;;;;;;;;5128749;27;20023;-84
2022/09/05 11:09:31;;;;;;;0.30;0.30;;;;;;;;;;5122028;27;20039;-83
2022/09/05 11:12:13;;;;;;;0.22;0.20;;;;;;;;;;5133680;27;20018;-83
2022/09/05 11:14:50;;;;;;;0.10;0.10;;;;;;;;;;5134195;27;20029;-84
2022/09/05 11:17:29;;;;;;;0.00;0.00;;;;;;;;;;5133263;27;20421;-84
2022/09/05 11:20:31;;;;;;;0.05;0.05;;;;;;;;;;5133328;27;20467;-84
2022/09/05 11:23:21;;;;;;;0.00;0.00;;;;;;;;;;5113107;27;20035;-83
2022/09/05 11:25:54;;;;;;;0.00;0.00;;;;;;;;;;5132129;27;20486;-84
2022/09/05 11:28:38;;;;;;;0.10;0.10;;;;;;;;;;5132784;27;20042;-84
2022/09/05 11:31:11;;;;;;;0.17;0.17;;;;;;;;;;5132584;27;20035;-82
2022/09/05 11:34:11;;;;;;;0.08;0.08;;;;;;;;;;5130270;27;20030;-84
2022/09/05 11:36:52;;;;;;;0.00;0.00;;;;;;;;;;5076953;27;20034;-84
2022/09/05 11:39:36;;;;;;;0.00;0.00;;;;;;;;;;5132817;27;20027;-83
2022/09/05 11:42:22;;;;;;;0.00;0.00;;;;;;;;;;5130985;27;20027;-84
2022/09/05 11:44:56;;;;;;;0.08;0.08;;;;;;;;;;5113151;27;20382;-83
2022/09/05 11:47:47;;;;;;;0.00;0.00;;;;;;;;;;5133042;27;20360;-85
2022/09/05 11:50:44;;;;;;;0.00;0.00;;;;;;;;;;5114483;27;20023;-84
2022/09/05 11:53:28;;;;;;;0.00;0.00;;;;;;;;;;5099521;27;20042;-86
2022/09/05 11:56:10;;;;;;;0.10;0.10;;;;;;;;;;5109869;28;20134;-83
2022/09/05 11:59:06;;;;;;;0.00;0.00;;;;;;;;;;5130069;27;20038;-84
2022/09/05 12:01:33;;;;;;;0.05;0.00;;;;;;;;;;5113834;27;20096;-84
2022/09/05 12:04:18;;;;;;;0.00;0.00;;;;;;;;;;5132520;27;20030;-84
2022/09/05 12:07:22;;;;;;;0.10;0.10;;;;;;;;;;5114422;28;20034;-84
2022/09/05 12:10:06;;;;;;;0.00;0.00;;;;;;;;;;5131905;28;20491;-84
2022/09/05 12:12:43;;;;;;;0.00;0.00;;;;;;;;;;5113703;28;20625;-84
2022/09/05 12:15:32;;;;;;;0.00;0.00;;;;;;;;;;5112829;28;20024;-85
2022/09/05 12:18:37;;;;;;;0.17;0.10;;;;;;;;;;5131719;28;20114;-83
2022/09/05 12:21:24;;;;;;;0.10;0.10;;;;;;;;;;5029080;28;20029;-84
2022/09/05 12:23:59;;;;;;;1.17;0.10;;;;;;;;;;5128894;28;20057;-84
2022/09/05 12:27:02;;;;;;;0.20;0.20;;;;;;;;;;5129571;28;20023;-84
2022/09/05 12:29:32;;;;;;;0.05;0.05;;;;;;;;;;5109826;28;20031;-84
2022/09/05 12:31:59;;;;;;;0.10;0.10;;;;;;;;;;5131901;28;20030;-84
2022/09/05 12:34:48;;;;;;;0.20;0.20;;;;;;;;;;5132079;28;20015;-85
2022/09/05 12:37:17;;;;;;;0.00;0.00;;;;;;;;;;5131237;28;20023;-83
2022/09/05 12:39:45;;;;;;;0.00;0.00;;;;;;;;;;5132001;28;20039;-84
2022/09/05 12:42:22;;;;;;;0.30;0.30;;;;;;;;;;5132302;28;20471;-84
2022/09/05 12:45:17;;;;;;;0.10;0.10;;;;;;;;;;5130086;28;20517;-84
2022/09/05 12:47:58;;;;;;;0.00;0.00;;;;;;;;;;5132221;28;20015;-84
2022/09/05 12:50:33;;;;;;;0.00;0.00;;;;;;;;;;5131857;28;20030;-85
2022/09/05 12:53:17;;;;;;;0.10;0.10;;;;;;;;;;5110030;27;20019;-84
2022/09/05 12:55:51;;;;;;;0.10;0.10;;;;;;;;;;5135388;27;20045;-84
2022/09/05 12:58:25;;;;;;;0.15;0.15;;;;;;;;;;5117220;27;20114;-85
2022/09/05 13:00:53;;;;;;;0.00;0.00;;;;;;;;;;5135107;27;20111;-83
2022/09/05 13:03:29;;;;;;;1.75;0.10;;;;;;;;;;5117344;27;20031;-84
2022/09/05 13:06:07;;;;;;;0.00;0.00;;;;;;;;;;5135535;27;20031;-84
2022/09/05 13:08:46;;;;;;;0.20;0.20;;;;;;;;;;5116913;27;20128;-85
2022/09/05 13:11:20;;;;;;;0.00;0.00;;;;;;;;;;5116723;27;20027;-84
2022/09/05 13:14:15;;;;;;;0.00;0.00;;;;;;;;;;5116175;27;20626;-83
2022/09/05 13:16:45;;;;;;;0.52;0.43;;;;;;;;;;5135731;27;20489;-84
2022/09/05 13:19:31;;;;;;;0.00;0.00;;;;;;;;;;5132998;27;20047;-83
2022/09/05 13:22:00;;;;;;;0.00;0.00;;;;;;;;;;5114306;27;20378;-83
2022/09/05 13:24:33;;;;;;;0.00;0.00;;;;;;;;;;5132919;27;20471;-84
2022/09/05 13:27:07;;;;;;;0.35;0.35;;;;;;;;;;5135248;27;20031;-83
2022/09/05 13:29:52;;;;;;;0.00;0.00;;;;;;;;;;5112178;27;20023;-84
2022/09/05 13:32:36;;;;;;;0.10;0.10;;;;;;;;;;5133988;27;20031;-84
2022/09/05 13:35:21;;;;;;;0.00;0.00;;;;;;;;;;5133284;27;20022;-84
2022/09/05 13:38:09;;;;;;;0.05;0.05;;;;;;;;;;5131897;27;20053;-84
2022/09/05 13:40:40;;;;;;;0.10;0.10;;;;;;;;;;5124758;27;20075;-84
2022/09/05 13:43:12;;;;;;;0.10;0.10;;;;;;;;;;5130536;27;20031;-86
2022/09/05 13:46:02;;;;;;;0.00;0.00;;;;;;;;;;5131999;27;20080;-84
2022/09/05 13:48:55;;;;;;;0.10;0.10;;;;;;;;;;5121255;27;20091;-84
2022/09/05 13:51:49;;;;;;;0.00;0.00;;;;;;;;;;5115231;27;20031;-84
2022/09/05 13:54:35;;;;;;;0.35;0.32;;;;;;;;;;5113008;27;20019;-83
2022/09/05 13:57:18;;;;;;;0.20;0.20;;;;;;;;;;5132508;27;20043;-84
2022/09/05 14:00:12;;;;;;;0.22;0.22;;;;;;;;;;5132391;27;20076;-83
2022/09/05 14:03:07;;;;;;;0.00;0.00;;;;;;;;;;5133432;27;20034;-83
2022/09/05 14:05:44;;;;;;;0.00;0.00;;;;;;;;;;5125379;27;20023;-84
2022/09/05 14:08:32;;;;;;;0.00;0.00;;;;;;;;;;5126677;27;20421;-84
2022/09/05 14:11:16;;;;;;;0.00;0.00;;;;;;;;;;5130102;27;20027;-81
2022/09/05 14:14:14;;;;;;;0.10;0.10;;;;;;;;;;5129943;27;20034;-82
2022/09/05 14:16:46;;;;;;;0.00;0.00;;;;;;;;;;5140236;27;20051;-81
2022/09/05 14:22:49;;;;;;;0.10;0.10;;;;;;;;;;5087910;28;20036;-82
2022/09/05 14:25:25;;;;;;;0.00;0.00;;;;;;;;;;5099692;27;20039;-81
2022/09/05 14:27:51;;;;;;;0.10;0.10;;;;;;;;;;5111508;27;20031;-81
2022/09/05 14:30:42;;;;;;;0.00;0.00;;;;;;;;;;5131773;27;20027;-81
2022/09/05 14:33:17;;;;;;;0.00;0.00;;;;;;;;;;5110963;27;20475;-81
2022/09/05 14:36:06;;;;;;;0.47;0.10;;;;;;;;;;5131229;27;20030;-80
2022/09/05 14:38:34;;;;;;;0.00;0.00;;;;;;;;;;5128789;27;20023;-80
2022/09/05 14:41:23;;;;;;;0.00;0.00;;;;;;;;;;5131435;27;20378;-81
2022/09/05 14:44:00;;;;;;;0.10;0.10;;;;;;;;;;5128005;27;20482;-81
2022/09/05 14:46:46;;;;;;;0.00;0.00;;;;;;;;;;5110961;27;20031;-81
2022/09/05 14:49:24;;;;;;;0.00;0.00;;;;;;;;;;5127883;27;20123;-81
2022/09/05 14:51:51;;;;;;;0.00;0.00;;;;;;;;;;5132174;27;20468;-81
2022/09/05 14:54:26;;;;;;;0.00;0.00;;;;;;;;;;5133403;27;20467;-81
2022/09/05 14:56:57;;;;;;;0.20;0.20;;;;;;;;;;5132486;27;20039;-81
2022/09/05 14:59:28;;;;;;;0.00;0.00;;;;;;;;;;5133345;27;20031;-82
2022/09/05 15:02:19;;;;;;;0.25;0.10;;;;;;;;;;5114113;27;20058;-81
2022/09/05 15:05:04;;;;;;;0.20;0.20;;;;;;;;;;5113588;27;20092;-82
2022/09/05 15:07:39;;;;;;;0.00;0.00;;;;;;;;;;5114132;27;20100;-81
2022/09/05 15:10:17;;;;;;;0.00;0.00;;;;;;;;;;5114157;27;20462;-80
2022/09/05 15:13:09;;;;;;;0.00;0.00;;;;;;;;;;5124168;27;20015;-82
2022/09/05 15:15:38;;;;;;;0.00;0.00;;;;;;;;;;5108486;27;20027;-81
2022/09/05 15:18:11;;;;;;;0.00;0.00;;;;;;;;;;5130693;27;20031;-81
2022/09/05 15:20:43;;;;;;;0.00;0.00;;;;;;;;;;5126842;27;20114;-81
2022/09/05 15:23:33;;;;;;;0.00;0.00;;;;;;;;;;5128844;27;20026;-80
2022/09/05 15:26:05;;;;;;;0.00;0.00;;;;;;;;;;5130300;27;20039;-81
2022/09/05 15:28:40;;;;;;;0.00;0.00;;;;;;;;;;5113531;27;20030;-81
2022/09/05 15:31:17;;;;;;;0.00;0.00;;;;;;;;;;5108299;27;20028;-79
2022/09/05 15:33:44;;;;;;;0.00;0.00;;;;;;;;;;5130579;27;20034;-80
2022/09/05 15:36:16;;;;;;;0.22;0.17;;;;;;;;;;5129861;27;20062;-81
2022/09/05 15:38:43;;;;;;;0.00;0.00;;;;;;;;;;5112349;27;20027;-83
2022/09/05 15:41:22;;;;;;;0.00;0.00;;;;;;;;;;5131055;27;20023;-85
2022/09/05 15:43:50;;;;;;;;;;;;;;;;;;5131710;27;20115;-84
2022/09/05 15:46:28;;;;;;;0.00;0.00;;;;;;;;;;5109616;27;19911;-85
2022/09/05 15:48:57;;;;;;;0.10;0.10;;;;;;;;;;5132874;27;20051;-86
2022/09/05 15:51:42;;;;;;;0.00;0.00;;;;;;;;;;5132940;27;20102;-86
2022/09/05 15:54:19;;;;;;;0.00;0.00;;;;;;;;;;5128706;27;20023;-82
2022/09/05 15:56:50;;;;;;;0.00;0.00;;;;;;;;;;5111539;27;20503;-83
2022/09/05 15:59:18;;;;;;;0.08;0.08;;;;;;;;;;5132553;27;20435;-84
2022/09/05 16:01:44;;;;;;;0.00;0.00;;;;;;;;;;5128251;27;20487;-83
2022/09/05 16:04:14;;;;;;;0.00;0.00;;;;;;;;;;5128512;27;20023;-84
2022/09/05 16:06:49;;;;;;;0.00;0.00;;;;;;;;;;5132203;27;20147;-86
2022/09/05 16:09:39;;;;;;;0.00;0.00;;;;;;;;;;5114135;28;20427;-84
2022/09/05 16:12:09;;;;;;;0.00;0.00;;;;;;;;;;5130804;27;20102;-82